Terminal Aerodrome Forecast
Issued by NWS Brownsville, TX

Home | Current Version | Previous Version | Text Only | Print | Product List | Glossary On
Versions: 1 2 3 4 5 6 7 8 9 10 11 12 13 14 15 16
004
FTUS44 KBRO 251136
TAFMFE
TAF
KMFE 251136Z 2512/2612 15008KT P6SM SKC
     FM251500 15018G26KT P6SM FEW040
     FM260300 15016KT P6SM SCT020
     FM260700 15015KT P6SM BKN020=

USA.gov is the U.S. government's official web portal to all federal, state and local government web resources and services.